createdAt,value
2019-05-12T00:01:28.748Z,100140.36
2019-05-12T00:03:58.254Z,100140.94
2019-05-12T00:06:28.377Z,100148.66
2019-05-12T00:08:58.026Z,100149.06
2019-05-12T00:11:28.694Z,100147.83
2019-05-12T00:13:59.682Z,100144.82
2019-05-12T00:16:29.271Z,100150.11
2019-05-12T00:18:58.721Z,100157.67
2019-05-12T00:21:28.435Z,100155.40
2019-05-12T00:24:12.680Z,100168.42
2019-05-12T00:26:42.536Z,100161.17
2019-05-12T00:29:11.927Z,100170.70
2019-05-12T00:31:40.917Z,100171.38
2019-05-12T00:34:10.229Z,100175.80
2019-05-12T00:36:39.073Z,100175.42
2019-05-12T00:39:10.251Z,100179.57
2019-05-12T00:41:39.379Z,100156.73
2019-05-12T00:44:09.032Z,100156.73
2019-05-12T00:46:38.684Z,100177.23
2019-05-12T00:49:08.254Z,100181.75
2019-05-12T00:51:38.591Z,100181.75
2019-05-12T00:54:09.139Z,100182.30
2019-05-12T00:56:39.310Z,100188.99
2019-05-12T00:59:08.625Z,100184.45
2019-05-12T01:01:38.180Z,100187.30
2019-05-12T01:04:08.824Z,100174.63
2019-05-12T01:06:38.860Z,100186.26
2019-05-12T01:09:08.921Z,100186.80
2019-05-12T01:11:38.432Z,100193.69
2019-05-12T01:14:09.366Z,100192.09
2019-05-12T01:16:38.858Z,100178.31
2019-05-12T01:19:08.236Z,100178.31
2019-05-12T01:21:38.311Z,100197.14
2019-05-12T01:24:08.838Z,100201.52
2019-05-12T01:26:38.916Z,100205.48
2019-05-12T01:29:09.412Z,100205.48
2019-05-12T01:31:44.967Z,100214.84
2019-05-12T01:34:14.300Z,100206.62
2019-05-12T01:36:43.226Z,100219.28
2019-05-12T01:39:12.222Z,100215.67
2019-05-12T01:41:41.230Z,100218.80
2019-05-12T01:44:10.403Z,100205.94
2019-05-12T01:46:39.584Z,100225.00
2019-05-12T01:49:08.759Z,100225.00
2019-05-12T01:51:38.503Z,100226.13
2019-05-12T01:54:14.383Z,100229.45
2019-05-12T01:56:38.688Z,100227.19
2019-05-12T01:59:08.274Z,100234.44
2019-05-12T02:01:38.894Z,100243.87
2019-05-12T02:04:08.190Z,100252.12
2019-05-12T02:06:38.602Z,100254.76
2019-05-12T02:09:11.625Z,100260.36
2019-05-12T02:11:40.734Z,100271.48
2019-05-12T02:14:09.841Z,100271.48
2019-05-12T02:16:38.981Z,100269.88
2019-05-12T02:19:09.274Z,100271.39
2019-05-12T02:21:38.518Z,100271.77
2019-05-12T02:24:08.045Z,100281.75
2019-05-12T02:26:38.500Z,100258.08
2019-05-12T02:29:08.001Z,100258.08
2019-05-12T02:31:39.880Z,100286.98
2019-05-12T02:34:07.892Z,100286.48
2019-05-12T02:36:37.101Z,100288.27
2019-05-12T02:39:08.116Z,100290.55
2019-05-12T02:41:37.626Z,100286.59
2019-05-12T02:44:06.892Z,100286.78
2019-05-12T02:46:35.981Z,100289.40
2019-05-12T02:49:05.343Z,100270.73
2019-05-12T02:51:35.469Z,100297.16
2019-05-12T02:54:05.713Z,100297.16
2019-05-12T02:56:36.553Z,100300.34
2019-05-12T02:59:05.890Z,100303.55
2019-05-12T03:01:36.608Z,100302.72
2019-05-12T03:04:06.645Z,100306.38
2019-05-12T03:06:36.255Z,100308.06
2019-05-12T03:09:07.770Z,100313.36
2019-05-12T03:11:37.951Z,100313.17
2019-05-12T03:14:07.188Z,100316.55
2019-05-12T03:16:37.713Z,100317.87
2019-05-12T03:19:06.908Z,100324.69
2019-05-12T03:21:36.079Z,100327.11
2019-05-12T03:24:06.491Z,100323.86
2019-05-12T03:26:35.959Z,100329.23
2019-05-12T03:29:05.923Z,100336.10
2019-05-12T03:31:39.867Z,100337.97
2019-05-12T03:34:09.883Z,100332.28
2019-05-12T03:36:41.862Z,100343.42
2019-05-12T03:39:09.331Z,100339.52
2019-05-12T03:41:38.361Z,100344.30
2019-05-12T03:44:07.990Z,100346.66
2019-05-12T03:46:37.664Z,100346.92
2019-05-12T03:49:06.869Z,100351.99
2019-05-12T03:51:35.973Z,100355.30
2019-05-12T03:54:05.582Z,100349.98
2019-05-12T03:56:35.310Z,100352.47
2019-05-12T03:59:05.466Z,100357.94
2019-05-12T04:01:36.539Z,100363.40
2019-05-12T04:04:06.412Z,100368.50
2019-05-12T04:06:35.553Z,100374.97
2019-05-12T04:09:07.142Z,100376.42
2019-05-12T04:11:36.245Z,100374.06
2019-05-12T04:14:05.945Z,100375.06
2019-05-12T04:16:36.557Z,100379.20
2019-05-12T04:19:06.895Z,100383.70
2019-05-12T04:21:36.597Z,100382.94
2019-05-12T04:24:06.418Z,100381.54
2019-05-12T04:26:36.743Z,100388.43
2019-05-12T04:29:07.458Z,100391.64
2019-05-12T04:31:37.403Z,100395.52
2019-05-12T04:34:14.338Z,100402.77
2019-05-12T04:36:41.009Z,100406.58
2019-05-12T04:39:10.337Z,100402.75
2019-05-12T04:41:39.612Z,100407.29
2019-05-12T04:44:09.000Z,100410.56
2019-05-12T04:46:38.469Z,100410.73
2019-05-12T04:49:07.490Z,100410.78
2019-05-12T04:51:36.768Z,100408.43
2019-05-12T04:54:06.594Z,100408.48
2019-05-12T04:56:36.375Z,100407.67
2019-05-12T04:59:05.874Z,100415.32
2019-05-12T05:01:35.266Z,100420.68
2019-05-12T05:04:06.222Z,100424.70
2019-05-12T05:06:36.279Z,100425.83
2019-05-12T05:09:07.764Z,100426.59
2019-05-12T05:11:36.871Z,100431.95
2019-05-12T05:14:05.981Z,100436.44
2019-05-12T05:16:35.509Z,100426.83
2019-05-12T05:19:05.887Z,100435.05
2019-05-12T05:21:34.775Z,100432.54
2019-05-12T05:24:04.207Z,100433.66
2019-05-12T05:26:36.689Z,100437.39
2019-05-12T05:29:04.380Z,100434.16
2019-05-12T05:31:33.866Z,100439.98
2019-05-12T05:34:04.774Z,100437.21
2019-05-12T05:36:34.782Z,100442.67
2019-05-12T05:39:06.353Z,100446.80
2019-05-12T05:41:40.221Z,100448.27
2019-05-12T05:44:06.484Z,100455.53
2019-05-12T05:46:39.037Z,100450.86
2019-05-12T05:49:07.084Z,100454.48
2019-05-12T05:51:39.508Z,100453.30
2019-05-12T05:54:08.374Z,100457.07
2019-05-12T05:56:42.710Z,100461.42
2019-05-12T05:59:08.516Z,100460.16
2019-05-12T06:01:40.054Z,100468.16
2019-05-12T06:04:08.875Z,100466.47
2019-05-12T06:06:44.370Z,100470.98
2019-05-12T06:09:10.345Z,100474.50
2019-05-12T06:11:39.557Z,100474.66
2019-05-12T06:14:14.083Z,100477.70
2019-05-12T06:16:40.547Z,100482.81
2019-05-12T06:19:13.912Z,100479.16
2019-05-12T06:21:44.043Z,100484.25
2019-05-12T06:24:15.665Z,100488.89
2019-05-12T06:26:56.664Z,100486.98
2019-05-12T06:29:20.375Z,100485.36
2019-05-12T06:31:47.855Z,100488.89
2019-05-12T06:34:20.797Z,100491.30
2019-05-12T06:36:48.042Z,100492.13
2019-05-12T06:39:20.537Z,100486.78
2019-05-12T06:41:48.210Z,100491.77
2019-05-12T06:44:19.588Z,100491.16
2019-05-12T06:46:53.570Z,100484.00
2019-05-12T06:49:20.075Z,100488.02
2019-05-12T06:51:53.691Z,100487.26
2019-05-12T06:54:20.563Z,100490.14
2019-05-12T06:56:54.920Z,100486.27
2019-05-12T06:59:23.605Z,100488.11
2019-05-12T07:01:58.714Z,100487.11
2019-05-12T07:04:24.080Z,100481.97
2019-05-12T07:06:56.180Z,100480.85
2019-05-12T07:09:28.743Z,100480.98
2019-05-12T07:12:03.024Z,100488.31
2019-05-12T07:14:27.391Z,100477.03
2019-05-12T07:17:02.838Z,100477.76
2019-05-12T07:19:30.135Z,100490.98
2019-05-12T07:22:00.159Z,100494.47
2019-05-12T07:24:29.147Z,100482.79
2019-05-12T07:27:06.828Z,100481.27
2019-05-12T07:29:34.387Z,100484.39
2019-05-12T07:32:07.136Z,100493.52
2019-05-12T07:34:35.742Z,100481.92
2019-05-12T07:37:05.555Z,100484.41
2019-05-12T07:39:37.025Z,100479.06
2019-05-12T07:42:07.277Z,100486.62
2019-05-12T07:44:40.015Z,100486.14
2019-05-12T07:47:13.765Z,100485.50
2019-05-12T07:49:44.225Z,100490.05
2019-05-12T07:52:13.861Z,100493.95
2019-05-12T07:54:44.451Z,100485.63
2019-05-12T07:57:17.450Z,100486.29
2019-05-12T07:59:45.791Z,100490.92
2019-05-12T08:02:15.018Z,100488.05
2019-05-12T08:04:44.149Z,100494.03
2019-05-12T08:07:14.530Z,100485.45
2019-05-12T08:09:44.075Z,100489.66
2019-05-12T08:12:16.309Z,100492.89
2019-05-12T08:14:44.266Z,100490.70
2019-05-12T08:17:19.276Z,100489.88
2019-05-12T08:19:44.626Z,100491.84
2019-05-12T08:22:13.716Z,100494.19
2019-05-12T08:24:47.632Z,100488.06
2019-05-12T08:27:14.410Z,100494.68
2019-05-12T08:29:44.206Z,100490.67
2019-05-12T08:32:16.050Z,100491.78
2019-05-12T08:34:44.923Z,100495.55
2019-05-12T08:37:14.496Z,100489.65
2019-05-12T08:39:44.278Z,100496.07
2019-05-12T08:42:14.555Z,100492.52
2019-05-12T08:44:44.093Z,100497.72
2019-05-12T08:47:15.216Z,100496.39
2019-05-12T08:49:52.991Z,100497.08
2019-05-12T08:52:16.412Z,100494.39
2019-05-12T08:54:49.389Z,100489.45
2019-05-12T08:57:17.684Z,100491.08
2019-05-12T08:59:47.075Z,100490.00
2019-05-12T09:02:16.414Z,100487.58
2019-05-12T09:04:51.334Z,100489.88
2019-05-12T09:07:16.856Z,100489.77
2019-05-12T09:09:46.323Z,100483.92
2019-05-12T09:12:15.332Z,100485.14
2019-05-12T09:14:46.137Z,100486.00
2019-05-12T09:17:15.588Z,100488.69
2019-05-12T09:19:44.730Z,100487.97
2019-05-12T09:22:18.538Z,100489.55
2019-05-12T09:24:45.330Z,100494.19
2019-05-12T09:27:14.685Z,100489.34
2019-05-12T09:29:46.376Z,100493.27
2019-05-12T09:32:15.636Z,100496.59
2019-05-12T09:34:52.741Z,100483.30
2019-05-12T09:37:15.987Z,100491.36
2019-05-12T09:39:47.295Z,100489.45
2019-05-12T09:42:19.330Z,100489.51
2019-05-12T09:44:48.470Z,100489.83
2019-05-12T09:47:23.015Z,100490.52
2019-05-12T09:49:50.199Z,100486.38
2019-05-12T09:52:27.004Z,100487.11
2019-05-12T09:54:50.335Z,100489.95
2019-05-12T09:57:19.450Z,100485.67
2019-05-12T09:59:55.467Z,100488.17
2019-05-12T10:02:21.006Z,100489.77
2019-05-12T10:04:57.898Z,100490.78
2019-05-12T10:07:21.200Z,100491.17
2019-05-12T10:09:55.031Z,100483.58
2019-05-12T10:12:23.115Z,100482.86
2019-05-12T10:14:54.871Z,100488.50
2019-05-12T10:17:26.325Z,100484.84
2019-05-12T10:19:58.162Z,100486.05
2019-05-12T10:22:39.992Z,100485.70
2019-05-12T10:25:10.821Z,100496.77
2019-05-12T10:27:41.172Z,100495.55
2019-05-12T10:30:16.406Z,100491.81
2019-05-12T10:32:46.226Z,100499.85
2019-05-12T10:35:21.359Z,100488.95
2019-05-12T10:37:47.517Z,100500.98
2019-05-12T10:40:17.519Z,100497.86
2019-05-12T10:42:49.546Z,100493.40
2019-05-12T10:45:20.731Z,100498.70
2019-05-12T10:47:50.343Z,100498.33
2019-05-12T10:50:19.889Z,100492.77
2019-05-12T10:52:48.880Z,100493.14
2019-05-12T10:55:18.028Z,100496.05
2019-05-12T10:57:52.217Z,100495.75
2019-05-12T11:00:24.539Z,100498.99
2019-05-12T11:02:50.658Z,100499.48
2019-05-12T11:05:22.967Z,100494.22
2019-05-12T11:07:50.756Z,100490.00
2019-05-12T11:10:20.291Z,100489.26
2019-05-12T11:12:49.778Z,100490.27
2019-05-12T11:15:20.299Z,100491.08
2019-05-12T11:18:30.491Z,100491.20
2019-05-12T11:20:57.444Z,100493.63
2019-05-12T11:23:26.373Z,100500.26
2019-05-12T11:25:55.560Z,100495.14
2019-05-12T11:28:25.622Z,100501.77
2019-05-12T11:30:55.154Z,100498.13
2019-05-12T11:33:24.775Z,100495.69
2019-05-12T11:35:54.469Z,100495.30
2019-05-12T11:38:24.475Z,100499.95
2019-05-12T11:40:53.930Z,100492.95
2019-05-12T11:43:29.903Z,100496.22
2019-05-12T11:46:00.148Z,100499.52
2019-05-12T11:48:30.810Z,100501.89
2019-05-12T11:51:03.900Z,100498.92
2019-05-12T11:53:36.716Z,100504.89
2019-05-12T11:56:09.238Z,100504.87
2019-05-12T11:58:46.207Z,100497.68
2019-05-12T12:01:14.877Z,100493.64
2019-05-12T12:03:45.728Z,100494.73
2019-05-12T12:06:17.423Z,100493.69
2019-05-12T12:08:48.033Z,100499.26
2019-05-12T12:11:24.502Z,100486.88
2019-05-12T12:13:53.432Z,100484.14
2019-05-12T12:16:23.765Z,100482.13
2019-05-12T12:19:02.366Z,100478.44
2019-05-12T12:21:25.736Z,100482.56
2019-05-12T12:23:55.582Z,100477.61
2019-05-12T12:26:30.416Z,100476.97
2019-05-12T12:28:59.889Z,100472.56
2019-05-12T12:31:35.585Z,100479.48
2019-05-12T12:34:02.291Z,100476.22
2019-05-12T12:36:34.053Z,100472.17
2019-05-12T12:39:04.175Z,100468.39
2019-05-12T12:41:34.187Z,100468.84
2019-05-12T12:44:04.603Z,100465.52
2019-05-12T12:49:13.933Z,100470.70
2019-05-12T12:51:45.552Z,100467.84
2019-05-12T12:54:15.986Z,100472.05
2019-05-12T12:56:45.439Z,100472.73
2019-05-12T12:59:14.630Z,100467.06
2019-05-12T13:01:44.292Z,100471.97
2019-05-12T13:04:13.458Z,100475.58
2019-05-12T13:06:43.748Z,100477.58
2019-05-12T13:09:22.578Z,100473.23
2019-05-12T13:11:44.557Z,100478.05
2019-05-12T13:14:13.821Z,100478.66
2019-05-12T13:16:43.665Z,100476.31
2019-05-12T13:19:17.043Z,100473.92
2019-05-12T13:21:45.558Z,100475.81
2019-05-12T13:24:14.899Z,100480.34
2019-05-12T13:26:44.212Z,100482.08
2019-05-12T13:29:13.539Z,100478.34
2019-05-12T13:31:46.958Z,100478.48
2019-05-12T13:34:14.398Z,100480.10
2019-05-12T13:36:44.270Z,100478.66
2019-05-12T13:39:16.305Z,100482.95
2019-05-12T13:41:44.916Z,100488.06
2019-05-12T13:44:14.272Z,100479.77
2019-05-12T13:46:48.546Z,100480.20
2019-05-12T13:49:14.294Z,100483.12
2019-05-12T13:51:48.512Z,100481.90
2019-05-12T13:54:14.615Z,100480.84
2019-05-12T13:56:44.449Z,100480.84
2019-05-12T13:59:20.550Z,100478.79
2019-05-12T14:01:45.779Z,100479.36
2019-05-12T14:04:15.987Z,100481.63
2019-05-12T14:06:45.635Z,100480.06
2019-05-12T14:09:15.104Z,100484.33
2019-05-12T14:11:45.449Z,100490.61
2019-05-12T14:14:15.682Z,100485.52
2019-05-12T14:16:53.606Z,100485.63
2019-05-12T14:19:16.783Z,100486.34
2019-05-12T14:21:46.040Z,100487.69
2019-05-12T14:24:15.489Z,100490.94
2019-05-12T14:26:48.054Z,100484.47
2019-05-12T14:29:20.465Z,100488.25
2019-05-12T14:31:55.010Z,100483.99
2019-05-12T14:34:20.858Z,100484.16
2019-05-12T14:36:48.123Z,100481.31
2019-05-12T14:39:17.691Z,100481.64
2019-05-12T14:41:52.994Z,100482.95
2019-05-12T14:44:17.622Z,100484.17
2019-05-12T14:46:50.483Z,100488.46
2019-05-12T14:49:20.188Z,100484.42
2019-05-12T14:51:50.578Z,100487.91
2019-05-12T14:54:19.759Z,100488.17
2019-05-12T14:56:53.688Z,100485.48
2019-05-12T14:59:24.290Z,100485.34
2019-05-12T15:01:58.960Z,100482.01
2019-05-12T15:04:27.940Z,100483.08
2019-05-12T15:06:59.633Z,100481.50
2019-05-12T15:09:29.423Z,100483.76
2019-05-12T15:11:58.362Z,100476.25
2019-05-12T15:14:32.628Z,100475.41
2019-05-12T15:16:58.852Z,100480.98
2019-05-12T15:19:29.801Z,100476.05
2019-05-12T15:22:01.596Z,100470.77
2019-05-12T15:24:33.550Z,100480.27
2019-05-12T15:27:03.846Z,100480.42
2019-05-12T15:29:33.919Z,100480.55
2019-05-12T15:32:04.133Z,100474.95
2019-05-12T15:34:33.858Z,100481.09
2019-05-12T15:37:04.144Z,100479.50
2019-05-12T15:39:33.706Z,100483.31
2019-05-12T15:42:03.519Z,100485.09
2019-05-12T15:44:36.778Z,100488.70
2019-05-12T15:47:05.436Z,100484.98
2019-05-12T15:49:34.588Z,100478.45
2019-05-12T15:52:03.856Z,100478.62
2019-05-12T15:54:35.799Z,100481.19
2019-05-12T15:57:04.385Z,100474.39
2019-05-12T15:59:34.526Z,100480.32
2019-05-12T16:02:12.379Z,100480.87
2019-05-12T16:04:42.870Z,100483.50
2019-05-12T16:07:07.122Z,100480.17
2019-05-12T16:09:36.387Z,100475.27
2019-05-12T16:12:18.669Z,100481.90
2019-05-12T16:14:40.919Z,100483.17
2019-05-12T16:17:07.248Z,100483.24
2019-05-12T16:19:37.163Z,100483.31
2019-05-12T16:22:06.370Z,100490.59
2019-05-12T16:24:35.622Z,100487.47
2019-05-12T16:27:04.720Z,100489.39
2019-05-12T16:29:34.240Z,100490.10
2019-05-12T16:32:06.389Z,100492.91
2019-05-12T16:34:44.134Z,100490.30
2019-05-12T16:37:06.987Z,100498.22
2019-05-12T16:39:43.844Z,100502.23
2019-05-12T16:42:10.450Z,100505.19
2019-05-12T16:44:38.321Z,100506.96
2019-05-12T16:47:23.875Z,100501.87
2019-05-12T16:49:49.463Z,100507.98
2019-05-12T16:52:18.875Z,100508.75
2019-05-12T16:54:48.023Z,100506.78
2019-05-12T16:57:18.249Z,100510.37
2019-05-12T16:59:55.954Z,100507.87
2019-05-12T17:02:18.486Z,100506.11
2019-05-12T17:04:47.664Z,100502.92
2019-05-12T17:07:20.848Z,100504.69
2019-05-12T17:09:48.710Z,100507.63
2019-05-12T17:12:23.949Z,100505.81
2019-05-12T17:14:53.302Z,100506.28
2019-05-12T17:17:24.646Z,100511.42
2019-05-12T17:19:57.174Z,100516.17
2019-05-12T17:22:26.659Z,100519.41
2019-05-12T17:24:55.852Z,100516.78
2019-05-12T17:27:27.439Z,100523.50
2019-05-12T17:29:56.922Z,100525.23
2019-05-12T17:32:26.038Z,100531.69
2019-05-12T17:34:55.360Z,100528.07
2019-05-12T17:37:24.722Z,100528.97
2019-05-12T17:39:53.889Z,100535.43
2019-05-12T17:42:26.704Z,100533.48
2019-05-12T17:44:54.524Z,100531.80
2019-05-12T17:47:26.390Z,100535.69
2019-05-12T17:50:00.540Z,100539.22
2019-05-12T17:52:26.847Z,100537.50
2019-05-12T17:55:04.562Z,100538.61
2019-05-12T17:57:26.934Z,100538.14
2019-05-12T17:59:59.763Z,100542.05
2019-05-12T18:02:26.965Z,100541.61
2019-05-12T18:05:01.253Z,100543.45
2019-05-12T18:07:27.686Z,100538.23
2019-05-12T18:10:00.592Z,100542.24
2019-05-12T18:12:38.270Z,100543.87
2019-05-12T18:14:58.320Z,100550.80
2019-05-12T18:17:27.337Z,100552.13
2019-05-12T18:20:00.758Z,100549.94
2019-05-12T18:22:27.480Z,100547.52
2019-05-12T18:24:56.509Z,100540.36
2019-05-12T18:27:25.906Z,100551.17
2019-05-12T18:29:55.594Z,100548.41
2019-05-12T18:32:24.812Z,100544.68
2019-05-12T18:34:59.462Z,100540.92
2019-05-12T18:37:27.282Z,100540.95
2019-05-12T18:39:56.422Z,100544.73
2019-05-12T18:42:25.576Z,100545.97
2019-05-12T18:44:55.904Z,100549.01
2019-05-12T18:47:31.800Z,100546.20
2019-05-12T18:49:59.716Z,100544.39
2019-05-12T18:52:34.578Z,100545.50
2019-05-12T18:55:01.015Z,100545.63
2019-05-12T18:57:30.464Z,100545.14
2019-05-12T19:00:04.243Z,100544.28
2019-05-12T19:02:30.526Z,100541.86
2019-05-12T19:04:59.929Z,100545.52
2019-05-12T19:07:39.318Z,100546.75
2019-05-12T19:10:06.555Z,100549.66
2019-05-12T19:12:35.929Z,100550.30
2019-05-12T19:15:10.268Z,100549.20
2019-05-12T19:17:38.256Z,100548.73
2019-05-12T19:20:08.583Z,100547.75
2019-05-12T19:22:39.273Z,100548.34
2019-05-12T19:25:09.568Z,100544.22
2019-05-12T19:27:38.691Z,100545.55
2019-05-12T19:30:08.552Z,100543.98
2019-05-12T19:32:37.661Z,100546.53
2019-05-12T19:35:09.535Z,100547.52
2019-05-12T19:37:37.674Z,100550.19
2019-05-12T19:40:11.971Z,100547.52
2019-05-12T19:42:37.649Z,100547.29
2019-05-12T19:45:19.353Z,100546.30
2019-05-12T19:47:38.544Z,100541.95
2019-05-12T19:50:11.964Z,100541.09
2019-05-12T19:52:39.576Z,100539.64
2019-05-12T19:55:09.020Z,100531.77
2019-05-12T19:57:38.356Z,100529.34
2019-05-12T20:00:08.228Z,100531.30
2019-05-12T20:02:37.532Z,100536.18
2019-05-12T20:05:08.554Z,100526.85
2019-05-12T20:07:37.826Z,100528.94
2019-05-12T20:10:07.593Z,100534.86
2019-05-12T20:12:37.328Z,100531.97
2019-05-12T20:15:07.105Z,100528.20
2019-05-12T20:17:36.140Z,100532.33
2019-05-12T20:20:05.474Z,100534.77
2019-05-12T20:22:34.596Z,100538.88
2019-05-12T20:25:04.396Z,100530.65
2019-05-12T20:27:35.143Z,100530.92
2019-05-12T20:30:07.217Z,100532.62
2019-05-12T20:32:36.094Z,100528.14
2019-05-12T20:35:06.066Z,100526.78
2019-05-12T20:37:35.674Z,100528.86
2019-05-12T20:40:06.708Z,100533.57
2019-05-12T20:42:42.236Z,100540.47
2019-05-12T20:45:08.847Z,100542.31
2019-05-12T20:47:38.999Z,100551.88
2019-05-12T20:50:09.730Z,100542.08
2019-05-12T20:52:45.053Z,100541.95
2019-05-12T20:55:10.576Z,100544.02
2019-05-12T20:57:49.400Z,100544.14
2019-05-12T21:00:10.554Z,100545.35
2019-05-12T21:02:40.282Z,100546.20
2019-05-12T21:05:16.749Z,100551.77
2019-05-12T21:07:40.545Z,100551.64
2019-05-12T21:10:09.710Z,100549.32
2019-05-12T21:12:46.392Z,100553.44
2019-05-12T21:15:17.342Z,100553.31
2019-05-12T21:17:52.082Z,100544.36
2019-05-12T21:20:17.146Z,100556.58
2019-05-12T21:22:46.964Z,100565.89
2019-05-12T21:25:16.658Z,100560.94
2019-05-12T21:27:47.748Z,100563.47
2019-05-12T21:30:19.573Z,100563.33
2019-05-12T21:32:59.064Z,100563.64
2019-05-12T21:35:22.633Z,100552.97
2019-05-12T21:37:51.151Z,100547.51
2019-05-12T21:40:22.321Z,100561.08
2019-05-12T21:42:53.575Z,100571.34
2019-05-12T21:45:26.599Z,100566.98
2019-05-12T21:47:56.317Z,100567.59
2019-05-12T21:50:32.507Z,100567.20
2019-05-12T21:52:59.584Z,100569.04
2019-05-12T21:55:29.071Z,100564.55
2019-05-12T21:58:01.551Z,100562.02
2019-05-12T22:00:36.071Z,100563.97
2019-05-12T22:03:12.403Z,100558.86
2019-05-12T22:05:50.360Z,100557.75
2019-05-12T22:08:17.563Z,100565.36
2019-05-12T22:10:43.531Z,100566.41
2019-05-12T22:13:17.076Z,100562.14
2019-05-12T22:15:43.517Z,100558.48
2019-05-12T22:18:12.680Z,100563.66
2019-05-12T22:20:46.114Z,100559.17
2019-05-12T22:23:15.019Z,100562.26
2019-05-12T22:25:49.037Z,100554.96
2019-05-12T22:28:14.678Z,100553.27
2019-05-12T22:30:44.006Z,100561.78
2019-05-12T22:33:13.965Z,100568.65
2019-05-12T22:35:44.275Z,100568.81
2019-05-12T22:38:19.031Z,100580.06
2019-05-12T22:40:49.341Z,100584.66
2019-05-12T22:43:18.395Z,100584.09
2019-05-12T22:45:49.446Z,100589.98
2019-05-12T22:48:18.724Z,100595.41
2019-05-12T22:50:47.722Z,100591.72
2019-05-12T22:53:19.328Z,100596.67
2019-05-12T22:55:48.651Z,100598.33
2019-05-12T22:58:22.324Z,100606.25
2019-05-12T23:00:51.095Z,100608.14
2019-05-12T23:03:19.741Z,100611.35
2019-05-12T23:05:50.864Z,100620.24
2019-05-12T23:08:19.890Z,100620.60
2019-05-12T23:10:51.765Z,100617.52
2019-05-12T23:13:23.283Z,100611.16
2019-05-12T23:15:52.108Z,100616.05
2019-05-12T23:18:28.774Z,100610.72
2019-05-12T23:20:54.109Z,100609.63
2019-05-12T23:23:24.349Z,100598.84
2019-05-12T23:26:00.167Z,100595.59
2019-05-12T23:28:25.578Z,100599.50
2019-05-12T23:30:54.481Z,100594.89
2019-05-12T23:33:31.565Z,100589.52
2019-05-12T23:35:54.687Z,100587.59
2019-05-12T23:38:24.586Z,100585.89
2019-05-12T23:40:55.006Z,100582.71
2019-05-12T23:43:24.114Z,100584.59
2019-05-12T23:45:53.463Z,100573.81
2019-05-12T23:48:23.186Z,100573.18
2019-05-12T23:50:54.276Z,100580.38
2019-05-12T23:53:24.362Z,100567.90
2019-05-12T23:55:54.526Z,100571.34
2019-05-12T23:58:25.154Z,100572.41
